Hutchinson Municipal Airport
KHUT : now visible

Airfield :











YOU CAN JOIN US ON...

 
LOGIN :

Register | Disclaimer

   EN    FR    IT 

 









Legend :    VFR   Marginal VFR   IFR   Intensive IFR   Very Intensive IFR
Visi :
Ceiling :
>= 8 km
>= 3000ft
5 to 8 km
1000 to 3000 ft
1500m to 5 km
500 to 1000 ft
800 to 1500m
200 to 500 ft
< 800m
< 200 ft
Symbols :   Thunderstorms  Fog  Heavy snow  Heavy precipitations  Wind > 20 kt







- Airport Elevation : 1543 ft


KHUT - Hutchinson Municipal

CURRENT METAR :
  • 181852Z 18020G30KT 10SM CLR 38/21 A2977 RMK AO2 PK WND 18030/1852 SLP051 T03780206

EXPIRED METARs :
  • 181752Z 20017G28KT 10SM CLR 36/20 A2979 RMK AO2 PK WND 19028/1746 SLP058 T03610200 10361 20256 58006
  • 181652Z 20020G26KT 10SM CLR 35/20 A2981 RMK AO2 PK WND 21030/1602 SLP063 T03500200

TAF KHUT
Valid from the 18 at 18:00 until the 19 at 18:00 UTC


181722Z 1818/1918 19020G29KT P6SM FEW200
FM190100 17014G20KT P6SM SKC
FM190700 18012KT P6SM SKC WS020/21040KT
FM191300 19015G22KT P6SM SKC
FM191600 19020G29KT P6SM SKC
KZKC FIR / North America



MET'MAP, your aeronautical weather chart ! - Copyright ORBIFLY December 2007 - Disclaimer

ORBIFLY MET'MAP TEAM :

Programming & Development : Alexandra Zaïnal
Concept & Development : Baudouin d'Aumeries
Co-Development & Prog : Marc-Olivier Méhu
Technical & hardware support : Manuel Goepfert

Contact : metmap@orbifly.com




SOURCES & CREDITS :

   NOAA       Earth
Advisory